sensor_id;sensor_type;location;lat;lon;timestamp;P1;durP1;ratioP1;P2;durP2;ratioP2
31482;SDS011;18103;52.246;8.052;2023-06-05T00:01:23;6.90;;;3.20;;
31482;SDS011;18103;52.246;8.052;2023-06-05T00:03:48;4.97;;;3.63;;
31482;SDS011;18103;52.246;8.052;2023-06-05T00:06:18;4.67;;;3.00;;
31482;SDS011;18103;52.246;8.052;2023-06-05T00:08:43;4.67;;;3.00;;
31482;SDS011;18103;52.246;8.052;2023-06-05T00:11:09;13.27;;;3.17;;
31482;SDS011;18103;52.246;8.052;2023-06-05T00:13:36;6.27;;;3.20;;
31482;SDS011;18103;52.246;8.052;2023-06-05T00:16:02;4.50;;;3.00;;
31482;SDS011;18103;52.246;8.052;2023-06-05T00:18:28;4.97;;;2.77;;
31482;SDS011;18103;52.246;8.052;2023-06-05T00:20:57;4.60;;;2.63;;
31482;SDS011;18103;52.246;8.052;2023-06-05T00:23:22;6.63;;;3.07;;
31482;SDS011;18103;52.246;8.052;2023-06-05T00:25:48;7.87;;;2.90;;
31482;SDS011;18103;52.246;8.052;2023-06-05T00:28:15;9.97;;;3.20;;
31482;SDS011;18103;52.246;8.052;2023-06-05T00:30:43;10.13;;;3.23;;
31482;SDS011;18103;52.246;8.052;2023-06-05T00:33:10;6.57;;;3.43;;
31482;SDS011;18103;52.246;8.052;2023-06-05T00:35:39;4.77;;;3.07;;
31482;SDS011;18103;52.246;8.052;2023-06-05T00:38:08;4.30;;;2.67;;
31482;SDS011;18103;52.246;8.052;2023-06-05T00:40:36;6.97;;;3.20;;
31482;SDS011;18103;52.246;8.052;2023-06-05T00:43:04;7.30;;;3.33;;
31482;SDS011;18103;52.246;8.052;2023-06-05T00:45:31;7.40;;;3.20;;
31482;SDS011;18103;52.246;8.052;2023-06-05T00:47:56;6.23;;;3.17;;
31482;SDS011;18103;52.246;8.052;2023-06-05T00:50:22;8.63;;;3.63;;
31482;SDS011;18103;52.246;8.052;2023-06-05T00:52:47;8.17;;;3.53;;
31482;SDS011;18103;52.246;8.052;2023-06-05T00:55:17;6.90;;;3.97;;
31482;SDS011;18103;52.246;8.052;2023-06-05T00:57:42;6.30;;;3.53;;
31482;SDS011;18103;52.246;8.052;2023-06-05T01:00:09;6.17;;;3.77;;
31482;SDS011;18103;52.246;8.052;2023-06-05T01:02:37;10.23;;;3.63;;
31482;SDS011;18103;52.246;8.052;2023-06-05T01:05:06;6.90;;;3.60;;
31482;SDS011;18103;52.246;8.052;2023-06-05T01:07:33;9.80;;;4.10;;
31482;SDS011;18103;52.246;8.052;2023-06-05T01:10:04;5.43;;;3.87;;
31482;SDS011;18103;52.246;8.052;2023-06-05T01:12:40;7.77;;;3.03;;
31482;SDS011;18103;52.246;8.052;2023-06-05T01:15:07;6.20;;;3.50;;
31482;SDS011;18103;52.246;8.052;2023-06-05T01:17:36;7.07;;;4.00;;
31482;SDS011;18103;52.246;8.052;2023-06-05T01:20:04;8.30;;;4.07;;
31482;SDS011;18103;52.246;8.052;2023-06-05T01:22:35;10.30;;;3.20;;
31482;SDS011;18103;52.246;8.052;2023-06-05T01:25:04;7.30;;;4.13;;
31482;SDS011;18103;52.246;8.052;2023-06-05T01:27:39;10.10;;;3.50;;
31482;SDS011;18103;52.246;8.052;2023-06-05T01:30:14;7.33;;;3.53;;
31482;SDS011;18103;52.246;8.052;2023-06-05T01:35:21;10.07;;;4.33;;
31482;SDS011;18103;52.246;8.052;2023-06-05T01:37:53;8.40;;;3.60;;
31482;SDS011;18103;52.246;8.052;2023-06-05T01:40:20;10.70;;;4.30;;
31482;SDS011;18103;52.246;8.052;2023-06-05T01:42:47;5.87;;;3.37;;
31482;SDS011;18103;52.246;8.052;2023-06-05T01:45:14;8.27;;;3.97;;
31482;SDS011;18103;52.246;8.052;2023-06-05T01:47:41;6.47;;;3.70;;
31482;SDS011;18103;52.246;8.052;2023-06-05T01:50:07;7.47;;;3.83;;
31482;SDS011;18103;52.246;8.052;2023-06-05T01:52:39;9.80;;;3.77;;
31482;SDS011;18103;52.246;8.052;2023-06-05T01:55:07;6.47;;;3.67;;
31482;SDS011;18103;52.246;8.052;2023-06-05T01:57:40;8.53;;;3.93;;
31482;SDS011;18103;52.246;8.052;2023-06-05T02:00:10;6.60;;;3.70;;
31482;SDS011;18103;52.246;8.052;2023-06-05T02:02:41;9.07;;;3.60;;
31482;SDS011;18103;52.246;8.052;2023-06-05T02:05:13;10.63;;;3.87;;
31482;SDS011;18103;52.246;8.052;2023-06-05T02:07:40;6.60;;;3.97;;
31482;SDS011;18103;52.246;8.052;2023-06-05T02:10:09;8.13;;;3.93;;
31482;SDS011;18103;52.246;8.052;2023-06-05T02:12:37;7.10;;;4.00;;
31482;SDS011;18103;52.246;8.052;2023-06-05T02:15:03;12.77;;;3.87;;
31482;SDS011;18103;52.246;8.052;2023-06-05T02:17:29;7.83;;;3.60;;
31482;SDS011;18103;52.246;8.052;2023-06-05T02:19:59;6.97;;;4.43;;
31482;SDS011;18103;52.246;8.052;2023-06-05T02:22:25;6.67;;;3.50;;
31482;SDS011;18103;52.246;8.052;2023-06-05T02:24:51;11.43;;;4.40;;
31482;SDS011;18103;52.246;8.052;2023-06-05T02:27:22;14.70;;;4.17;;
31482;SDS011;18103;52.246;8.052;2023-06-05T02:29:49;8.87;;;4.13;;
31482;SDS011;18103;52.246;8.052;2023-06-05T02:32:15;7.40;;;4.30;;
31482;SDS011;18103;52.246;8.052;2023-06-05T02:34:43;10.37;;;4.87;;
31482;SDS011;18103;52.246;8.052;2023-06-05T02:37:12;7.60;;;4.20;;
31482;SDS011;18103;52.246;8.052;2023-06-05T02:39:37;7.57;;;4.60;;
31482;SDS011;18103;52.246;8.052;2023-06-05T02:42:03;7.70;;;4.60;;
31482;SDS011;18103;52.246;8.052;2023-06-05T02:44:28;9.47;;;5.03;;
31482;SDS011;18103;52.246;8.052;2023-06-05T02:46:54;11.67;;;4.93;;
31482;SDS011;18103;52.246;8.052;2023-06-05T02:49:22;13.70;;;5.17;;
31482;SDS011;18103;52.246;8.052;2023-06-05T02:51:51;7.60;;;4.83;;
31482;SDS011;18103;52.246;8.052;2023-06-05T02:54:18;9.77;;;5.30;;
31482;SDS011;18103;52.246;8.052;2023-06-05T02:56:46;10.07;;;5.27;;
31482;SDS011;18103;52.246;8.052;2023-06-05T02:59:14;14.10;;;5.40;;
31482;SDS011;18103;52.246;8.052;2023-06-05T03:01:42;10.90;;;5.23;;
31482;SDS011;18103;52.246;8.052;2023-06-05T03:04:12;12.97;;;5.07;;
31482;SDS011;18103;52.246;8.052;2023-06-05T03:06:38;11.00;;;5.40;;
31482;SDS011;18103;52.246;8.052;2023-06-05T03:09:03;8.30;;;5.43;;
31482;SDS011;18103;52.246;8.052;2023-06-05T03:11:29;10.23;;;5.40;;
31482;SDS011;18103;52.246;8.052;2023-06-05T03:13:56;11.20;;;5.43;;
31482;SDS011;18103;52.246;8.052;2023-06-05T03:16:24;6.90;;;4.83;;
31482;SDS011;18103;52.246;8.052;2023-06-05T03:19:02;12.53;;;5.60;;
31482;SDS011;18103;52.246;8.052;2023-06-05T03:21:30;12.47;;;5.30;;
31482;SDS011;18103;52.246;8.052;2023-06-05T03:23:55;10.17;;;5.63;;
31482;SDS011;18103;52.246;8.052;2023-06-05T03:26:26;8.87;;;5.57;;
31482;SDS011;18103;52.246;8.052;2023-06-05T03:28:54;16.10;;;5.97;;
31482;SDS011;18103;52.246;8.052;2023-06-05T03:31:19;9.97;;;4.73;;
31482;SDS011;18103;52.246;8.052;2023-06-05T03:33:45;12.70;;;6.07;;
31482;SDS011;18103;52.246;8.052;2023-06-05T03:36:15;9.87;;;4.90;;
31482;SDS011;18103;52.246;8.052;2023-06-05T03:38:45;12.90;;;5.60;;
31482;SDS011;18103;52.246;8.052;2023-06-05T03:41:13;9.07;;;4.70;;
31482;SDS011;18103;52.246;8.052;2023-06-05T03:43:38;14.73;;;5.87;;
31482;SDS011;18103;52.246;8.052;2023-06-05T03:46:06;10.90;;;5.87;;
31482;SDS011;18103;52.246;8.052;2023-06-05T03:48:32;14.67;;;6.90;;
31482;SDS011;18103;52.246;8.052;2023-06-05T03:50:57;12.27;;;6.20;;
31482;SDS011;18103;52.246;8.052;2023-06-05T03:53:25;16.23;;;6.57;;
31482;SDS011;18103;52.246;8.052;2023-06-05T03:55:54;11.07;;;5.90;;
31482;SDS011;18103;52.246;8.052;2023-06-05T03:58:19;11.00;;;5.97;;
31482;SDS011;18103;52.246;8.052;2023-06-05T04:00:46;15.70;;;6.77;;
31482;SDS011;18103;52.246;8.052;2023-06-05T04:03:18;14.20;;;6.13;;
31482;SDS011;18103;52.246;8.052;2023-06-05T04:05:45;11.63;;;6.13;;
31482;SDS011;18103;52.246;8.052;2023-06-05T04:08:13;9.93;;;5.57;;
31482;SDS011;18103;52.246;8.052;2023-06-05T04:10:41;11.53;;;6.23;;
31482;SDS011;18103;52.246;8.052;2023-06-05T04:13:07;11.07;;;5.90;;
31482;SDS011;18103;52.246;8.052;2023-06-05T04:15:32;13.90;;;6.23;;
31482;SDS011;18103;52.246;8.052;2023-06-05T04:18:00;9.40;;;6.30;;
31482;SDS011;18103;52.246;8.052;2023-06-05T04:20:25;10.87;;;6.27;;
31482;SDS011;18103;52.246;8.052;2023-06-05T04:22:53;12.10;;;6.50;;
31482;SDS011;18103;52.246;8.052;2023-06-05T04:25:19;12.33;;;6.20;;
31482;SDS011;18103;52.246;8.052;2023-06-05T04:27:45;16.70;;;7.20;;
31482;SDS011;18103;52.246;8.052;2023-06-05T04:30:13;16.90;;;6.13;;
31482;SDS011;18103;52.246;8.052;2023-06-05T04:32:41;12.40;;;6.30;;
31482;SDS011;18103;52.246;8.052;2023-06-05T04:35:09;18.93;;;6.10;;
31482;SDS011;18103;52.246;8.052;2023-06-05T04:37:37;10.63;;;5.80;;
31482;SDS011;18103;52.246;8.052;2023-06-05T04:40:08;13.10;;;6.20;;
31482;SDS011;18103;52.246;8.052;2023-06-05T04:42:37;10.37;;;6.00;;
31482;SDS011;18103;52.246;8.052;2023-06-05T04:45:03;9.73;;;5.63;;
31482;SDS011;18103;52.246;8.052;2023-06-05T04:47:31;12.23;;;5.93;;
31482;SDS011;18103;52.246;8.052;2023-06-05T04:49:59;12.87;;;6.17;;
31482;SDS011;18103;52.246;8.052;2023-06-05T04:52:32;14.50;;;6.10;;
31482;SDS011;18103;52.246;8.052;2023-06-05T04:55:00;14.00;;;6.10;;
31482;SDS011;18103;52.246;8.052;2023-06-05T04:57:31;13.27;;;6.23;;
31482;SDS011;18103;52.246;8.052;2023-06-05T04:59:59;12.33;;;5.40;;
31482;SDS011;18103;52.246;8.052;2023-06-05T05:02:29;10.83;;;5.83;;
31482;SDS011;18103;52.246;8.052;2023-06-05T05:04:54;12.77;;;5.93;;
31482;SDS011;18103;52.246;8.052;2023-06-05T05:07:23;14.47;;;5.47;;
31482;SDS011;18103;52.246;8.052;2023-06-05T05:09:53;15.17;;;6.23;;
31482;SDS011;18103;52.246;8.052;2023-06-05T05:12:18;9.23;;;5.57;;
31482;SDS011;18103;52.246;8.052;2023-06-05T05:14:48;13.03;;;6.13;;
31482;SDS011;18103;52.246;8.052;2023-06-05T05:17:14;14.43;;;6.33;;
31482;SDS011;18103;52.246;8.052;2023-06-05T05:19:42;16.70;;;5.90;;
31482;SDS011;18103;52.246;8.052;2023-06-05T05:22:07;12.00;;;5.50;;
31482;SDS011;18103;52.246;8.052;2023-06-05T05:24:35;12.70;;;5.47;;
31482;SDS011;18103;52.246;8.052;2023-06-05T05:27:00;14.87;;;5.83;;
31482;SDS011;18103;52.246;8.052;2023-06-05T05:29:28;13.20;;;5.67;;
31482;SDS011;18103;52.246;8.052;2023-06-05T05:31:58;14.00;;;6.17;;
31482;SDS011;18103;52.246;8.052;2023-06-05T05:34:23;11.70;;;5.87;;
31482;SDS011;18103;52.246;8.052;2023-06-05T05:36:51;15.50;;;5.73;;
31482;SDS011;18103;52.246;8.052;2023-06-05T05:39:17;13.17;;;5.73;;
31482;SDS011;18103;52.246;8.052;2023-06-05T05:41:47;13.50;;;5.77;;
31482;SDS011;18103;52.246;8.052;2023-06-05T05:44:13;14.73;;;5.53;;
31482;SDS011;18103;52.246;8.052;2023-06-05T05:46:38;13.37;;;5.47;;
31482;SDS011;18103;52.246;8.052;2023-06-05T05:49:03;19.37;;;6.03;;
31482;SDS011;18103;52.246;8.052;2023-06-05T05:51:32;13.07;;;5.27;;
31482;SDS011;18103;52.246;8.052;2023-06-05T05:53:58;14.77;;;6.10;;
31482;SDS011;18103;52.246;8.052;2023-06-05T05:56:24;8.17;;;4.40;;
31482;SDS011;18103;52.246;8.052;2023-06-05T05:58:52;8.37;;;5.07;;
31482;SDS011;18103;52.246;8.052;2023-06-05T06:01:17;8.97;;;5.03;;
31482;SDS011;18103;52.246;8.052;2023-06-05T06:03:43;15.53;;;6.43;;
31482;SDS011;18103;52.246;8.052;2023-06-05T06:06:10;15.53;;;5.77;;
31482;SDS011;18103;52.246;8.052;2023-06-05T06:08:37;8.97;;;5.30;;
31482;SDS011;18103;52.246;8.052;2023-06-05T06:11:04;13.47;;;5.23;;
31482;SDS011;18103;52.246;8.052;2023-06-05T06:13:31;11.17;;;5.23;;
31482;SDS011;18103;52.246;8.052;2023-06-05T06:15:58;13.03;;;6.23;;
31482;SDS011;18103;52.246;8.052;2023-06-05T06:18:27;11.80;;;6.00;;
31482;SDS011;18103;52.246;8.052;2023-06-05T06:20:54;14.43;;;6.17;;
31482;SDS011;18103;52.246;8.052;2023-06-05T06:23:23;13.37;;;5.63;;
31482;SDS011;18103;52.246;8.052;2023-06-05T06:25:48;10.73;;;5.63;;
31482;SDS011;18103;52.246;8.052;2023-06-05T06:28:19;9.63;;;5.63;;
31482;SDS011;18103;52.246;8.052;2023-06-05T06:30:44;13.83;;;4.80;;
31482;SDS011;18103;52.246;8.052;2023-06-05T06:33:10;9.90;;;5.33;;
31482;SDS011;18103;52.246;8.052;2023-06-05T06:35:35;14.53;;;4.93;;
31482;SDS011;18103;52.246;8.052;2023-06-05T06:38:03;10.03;;;5.03;;
31482;SDS011;18103;52.246;8.052;2023-06-05T06:40:29;12.83;;;5.03;;
31482;SDS011;18103;52.246;8.052;2023-06-05T06:42:54;15.07;;;5.13;;
31482;SDS011;18103;52.246;8.052;2023-06-05T06:45:22;12.30;;;5.67;;
31482;SDS011;18103;52.246;8.052;2023-06-05T06:47:47;7.87;;;4.53;;
31482;SDS011;18103;52.246;8.052;2023-06-05T06:50:13;9.73;;;4.47;;
31482;SDS011;18103;52.246;8.052;2023-06-05T06:52:41;10.97;;;5.50;;
31482;SDS011;18103;52.246;8.052;2023-06-05T06:55:09;10.43;;;4.90;;
31482;SDS011;18103;52.246;8.052;2023-06-05T06:57:37;14.40;;;5.33;;
31482;SDS011;18103;52.246;8.052;2023-06-05T07:00:02;11.77;;;4.40;;
31482;SDS011;18103;52.246;8.052;2023-06-05T07:02:33;10.77;;;5.10;;
31482;SDS011;18103;52.246;8.052;2023-06-05T07:05:01;10.33;;;4.43;;
31482;SDS011;18103;52.246;8.052;2023-06-05T07:07:26;13.77;;;5.70;;
31482;SDS011;18103;52.246;8.052;2023-06-05T07:09:54;14.23;;;5.73;;
31482;SDS011;18103;52.246;8.052;2023-06-05T07:12:22;9.97;;;4.10;;
31482;SDS011;18103;52.246;8.052;2023-06-05T07:14:50;7.53;;;4.90;;
31482;SDS011;18103;52.246;8.052;2023-06-05T07:17:19;7.77;;;4.70;;
31482;SDS011;18103;52.246;8.052;2023-06-05T07:19:46;9.90;;;5.20;;
31482;SDS011;18103;52.246;8.052;2023-06-05T07:22:15;9.90;;;5.03;;
31482;SDS011;18103;52.246;8.052;2023-06-05T07:24:43;10.47;;;5.13;;
31482;SDS011;18103;52.246;8.052;2023-06-05T07:27:11;10.80;;;5.10;;
31482;SDS011;18103;52.246;8.052;2023-06-05T07:29:37;8.07;;;4.70;;
31482;SDS011;18103;52.246;8.052;2023-06-05T07:32:05;12.30;;;4.77;;
31482;SDS011;18103;52.246;8.052;2023-06-05T07:34:32;9.17;;;5.03;;
31482;SDS011;18103;52.246;8.052;2023-06-05T07:36:59;12.73;;;5.57;;
31482;SDS011;18103;52.246;8.052;2023-06-05T07:39:27;9.00;;;4.57;;
31482;SDS011;18103;52.246;8.052;2023-06-05T07:41:53;8.70;;;4.43;;
31482;SDS011;18103;52.246;8.052;2023-06-05T07:44:19;10.50;;;5.13;;
31482;SDS011;18103;52.246;8.052;2023-06-05T07:46:46;8.63;;;4.57;;
31482;SDS011;18103;52.246;8.052;2023-06-05T07:49:12;11.63;;;4.90;;
31482;SDS011;18103;52.246;8.052;2023-06-05T07:51:38;10.37;;;4.80;;
31482;SDS011;18103;52.246;8.052;2023-06-05T07:54:05;11.47;;;5.33;;
31482;SDS011;18103;52.246;8.052;2023-06-05T07:56:34;8.90;;;4.73;;
31482;SDS011;18103;52.246;8.052;2023-06-05T07:59:02;12.57;;;5.20;;
31482;SDS011;18103;52.246;8.052;2023-06-05T08:01:31;14.23;;;4.90;;
31482;SDS011;18103;52.246;8.052;2023-06-05T08:04:01;10.03;;;4.60;;
31482;SDS011;18103;52.246;8.052;2023-06-05T08:06:32;10.23;;;5.20;;
31482;SDS011;18103;52.246;8.052;2023-06-05T08:09:05;8.47;;;4.87;;
31482;SDS011;18103;52.246;8.052;2023-06-05T08:11:32;12.20;;;4.57;;
31482;SDS011;18103;52.246;8.052;2023-06-05T08:14:02;9.97;;;4.83;;
31482;SDS011;18103;52.246;8.052;2023-06-05T08:16:31;11.33;;;4.27;;
31482;SDS011;18103;52.246;8.052;2023-06-05T08:18:56;10.30;;;4.70;;
31482;SDS011;18103;52.246;8.052;2023-06-05T08:21:24;10.77;;;4.37;;
31482;SDS011;18103;52.246;8.052;2023-06-05T08:23:54;9.43;;;4.40;;
31482;SDS011;18103;52.246;8.052;2023-06-05T08:26:22;8.53;;;3.57;;
31482;SDS011;18103;52.246;8.052;2023-06-05T08:28:50;9.00;;;4.00;;
31482;SDS011;18103;52.246;8.052;2023-06-05T08:31:16;10.50;;;3.77;;
31482;SDS011;18103;52.246;8.052;2023-06-05T08:33:42;9.60;;;3.73;;
31482;SDS011;18103;52.246;8.052;2023-06-05T08:36:07;10.60;;;3.87;;
31482;SDS011;18103;52.246;8.052;2023-06-05T08:38:33;10.80;;;4.70;;
31482;SDS011;18103;52.246;8.052;2023-06-05T08:41:05;8.23;;;4.00;;
31482;SDS011;18103;52.246;8.052;2023-06-05T08:43:35;9.37;;;4.53;;
31482;SDS011;18103;52.246;8.052;2023-06-05T08:46:06;6.80;;;3.93;;
31482;SDS011;18103;52.246;8.052;2023-06-05T08:48:37;6.10;;;3.87;;
31482;SDS011;18103;52.246;8.052;2023-06-05T08:51:06;12.00;;;3.80;;
31482;SDS011;18103;52.246;8.052;2023-06-05T08:53:37;13.03;;;4.43;;
31482;SDS011;18103;52.246;8.052;2023-06-05T08:56:11;8.97;;;4.50;;
31482;SDS011;18103;52.246;8.052;2023-06-05T08:58:38;5.30;;;3.50;;
31482;SDS011;18103;52.246;8.052;2023-06-05T09:01:04;11.73;;;3.80;;
31482;SDS011;18103;52.246;8.052;2023-06-05T09:03:32;8.17;;;4.20;;
31482;SDS011;18103;52.246;8.052;2023-06-05T09:05:58;10.83;;;4.43;;
31482;SDS011;18103;52.246;8.052;2023-06-05T09:08:28;8.43;;;3.43;;
31482;SDS011;18103;52.246;8.052;2023-06-05T09:13:48;8.77;;;4.53;;
31482;SDS011;18103;52.246;8.052;2023-06-05T09:16:19;8.20;;;4.03;;
31482;SDS011;18103;52.246;8.052;2023-06-05T09:18:59;8.87;;;3.47;;
31482;SDS011;18103;52.246;8.052;2023-06-05T09:21:29;8.37;;;3.47;;
31482;SDS011;18103;52.246;8.052;2023-06-05T09:26:55;8.40;;;4.30;;
31482;SDS011;18103;52.246;8.052;2023-06-05T09:29:37;9.90;;;3.83;;
31482;SDS011;18103;52.246;8.052;2023-06-05T09:32:05;7.77;;;4.10;;
31482;SDS011;18103;52.246;8.052;2023-06-05T09:34:35;11.57;;;3.87;;
31482;SDS011;18103;52.246;8.052;2023-06-05T09:37:05;6.27;;;3.10;;
31482;SDS011;18103;52.246;8.052;2023-06-05T09:39:39;10.20;;;3.23;;
31482;SDS011;18103;52.246;8.052;2023-06-05T09:42:09;4.87;;;2.97;;
31482;SDS011;18103;52.246;8.052;2023-06-05T09:44:37;9.30;;;3.97;;
31482;SDS011;18103;52.246;8.052;2023-06-05T09:47:06;10.23;;;3.80;;
31482;SDS011;18103;52.246;8.052;2023-06-05T09:52:05;9.27;;;3.73;;
31482;SDS011;18103;52.246;8.052;2023-06-05T09:54:36;8.47;;;3.50;;
31482;SDS011;18103;52.246;8.052;2023-06-05T09:57:03;9.83;;;3.00;;
31482;SDS011;18103;52.246;8.052;2023-06-05T09:59:32;5.53;;;3.20;;
31482;SDS011;18103;52.246;8.052;2023-06-05T10:02:02;6.10;;;2.97;;
31482;SDS011;18103;52.246;8.052;2023-06-05T10:04:56;7.03;;;3.20;;
31482;SDS011;18103;52.246;8.052;2023-06-05T10:07:26;5.10;;;2.70;;
31482;SDS011;18103;52.246;8.052;2023-06-05T10:09:52;7.67;;;3.23;;
31482;SDS011;18103;52.246;8.052;2023-06-05T10:12:19;7.43;;;3.63;;
31482;SDS011;18103;52.246;8.052;2023-06-05T10:14:45;10.87;;;3.40;;
31482;SDS011;18103;52.246;8.052;2023-06-05T10:17:14;6.90;;;3.17;;
31482;SDS011;18103;52.246;8.052;2023-06-05T10:19:44;6.07;;;3.17;;
31482;SDS011;18103;52.246;8.052;2023-06-05T10:22:12;7.80;;;3.10;;
31482;SDS011;18103;52.246;8.052;2023-06-05T10:24:45;9.67;;;3.03;;
31482;SDS011;18103;52.246;8.052;2023-06-05T10:33:05;8.77;;;3.27;;
31482;SDS011;18103;52.246;8.052;2023-06-05T10:35:47;8.20;;;2.47;;
31482;SDS011;18103;52.246;8.052;2023-06-05T10:38:22;4.27;;;2.50;;
31482;SDS011;18103;52.246;8.052;2023-06-05T10:51:33;7.87;;;2.87;;
31482;SDS011;18103;52.246;8.052;2023-06-05T10:54:10;4.70;;;2.73;;
31482;SDS011;18103;52.246;8.052;2023-06-05T10:59:30;6.17;;;2.70;;
31482;SDS011;18103;52.246;8.052;2023-06-05T11:07:29;3.67;;;2.03;;
31482;SDS011;18103;52.246;8.052;2023-06-05T11:17:43;3.43;;;1.70;;
31482;SDS011;18103;52.246;8.052;2023-06-05T11:27:46;2.40;;;1.70;;
31482;SDS011;18103;52.246;8.052;2023-06-05T11:30:19;6.70;;;3.17;;
31482;SDS011;18103;52.246;8.052;2023-06-05T11:32:46;4.40;;;2.00;;
31482;SDS011;18103;52.246;8.052;2023-06-05T11:35:23;5.27;;;2.00;;
31482;SDS011;18103;52.246;8.052;2023-06-05T11:38:06;2.80;;;1.60;;
31482;SDS011;18103;52.246;8.052;2023-06-05T11:40:32;5.10;;;1.70;;
31482;SDS011;18103;52.246;8.052;2023-06-05T11:43:08;2.00;;;1.70;;
31482;SDS011;18103;52.246;8.052;2023-06-05T11:45:39;3.77;;;1.80;;
31482;SDS011;18103;52.246;8.052;2023-06-05T11:48:12;5.50;;;1.80;;
31482;SDS011;18103;52.246;8.052;2023-06-05T11:53:26;1.87;;;1.23;;
31482;SDS011;18103;52.246;8.052;2023-06-05T11:55:54;4.13;;;1.47;;
31482;SDS011;18103;52.246;8.052;2023-06-05T11:58:37;2.03;;;1.23;;
31482;SDS011;18103;52.246;8.052;2023-06-05T12:03:34;2.90;;;1.60;;
31482;SDS011;18103;52.246;8.052;2023-06-05T12:06:04;2.17;;;1.53;;
31482;SDS011;18103;52.246;8.052;2023-06-05T12:08:30;3.93;;;1.63;;
31482;SDS011;18103;52.246;8.052;2023-06-05T12:11:00;5.50;;;1.97;;
31482;SDS011;18103;52.246;8.052;2023-06-05T12:16:29;1.90;;;1.23;;
31482;SDS011;18103;52.246;8.052;2023-06-05T12:19:19;1.77;;;1.07;;
31482;SDS011;18103;52.246;8.052;2023-06-05T12:21:45;4.03;;;1.37;;
31482;SDS011;18103;52.246;8.052;2023-06-05T12:24:15;3.77;;;1.47;;
31482;SDS011;18103;52.246;8.052;2023-06-05T12:26:50;2.87;;;1.33;;
31482;SDS011;18103;52.246;8.052;2023-06-05T12:29:19;5.63;;;1.63;;
31482;SDS011;18103;52.246;8.052;2023-06-05T12:31:47;4.80;;;1.80;;
31482;SDS011;18103;52.246;8.052;2023-06-05T12:34:12;5.40;;;1.83;;
31482;SDS011;18103;52.246;8.052;2023-06-05T12:36:40;2.47;;;1.40;;
31482;SDS011;18103;52.246;8.052;2023-06-05T12:39:12;2.77;;;1.27;;
31482;SDS011;18103;52.246;8.052;2023-06-05T12:41:39;3.90;;;1.23;;
31482;SDS011;18103;52.246;8.052;2023-06-05T12:44:05;1.90;;;1.50;;
31482;SDS011;18103;52.246;8.052;2023-06-05T12:46:34;3.93;;;1.37;;
31482;SDS011;18103;52.246;8.052;2023-06-05T12:49:01;1.97;;;1.27;;
31482;SDS011;18103;52.246;8.052;2023-06-05T12:51:30;3.00;;;1.43;;
31482;SDS011;18103;52.246;8.052;2023-06-05T12:53:58;2.50;;;1.40;;
31482;SDS011;18103;52.246;8.052;2023-06-05T12:56:24;2.50;;;1.47;;
31482;SDS011;18103;52.246;8.052;2023-06-05T12:58:52;2.50;;;1.63;;
31482;SDS011;18103;52.246;8.052;2023-06-05T13:01:19;2.23;;;1.30;;
31482;SDS011;18103;52.246;8.052;2023-06-05T13:03:46;3.43;;;1.30;;
31482;SDS011;18103;52.246;8.052;2023-06-05T13:06:12;3.27;;;1.40;;
31482;SDS011;18103;52.246;8.052;2023-06-05T13:08:37;3.10;;;1.40;;
31482;SDS011;18103;52.246;8.052;2023-06-05T13:11:03;3.87;;;1.70;;
31482;SDS011;18103;52.246;8.052;2023-06-05T13:13:28;2.30;;;1.53;;
31482;SDS011;18103;52.246;8.052;2023-06-05T13:15:54;4.33;;;1.47;;
31482;SDS011;18103;52.246;8.052;2023-06-05T13:18:20;4.93;;;1.80;;
31482;SDS011;18103;52.246;8.052;2023-06-05T13:20:45;1.63;;;1.23;;
31482;SDS011;18103;52.246;8.052;2023-06-05T13:23:11;1.80;;;1.47;;
31482;SDS011;18103;52.246;8.052;2023-06-05T13:25:36;4.13;;;1.70;;
31482;SDS011;18103;52.246;8.052;2023-06-05T13:28:02;1.40;;;1.20;;
31482;SDS011;18103;52.246;8.052;2023-06-05T13:30:27;2.93;;;1.23;;
31482;SDS011;18103;52.246;8.052;2023-06-05T13:32:55;1.70;;;1.30;;
31482;SDS011;18103;52.246;8.052;2023-06-05T13:35:23;1.80;;;1.33;;
31482;SDS011;18103;52.246;8.052;2023-06-05T13:37:48;3.70;;;1.20;;
31482;SDS011;18103;52.246;8.052;2023-06-05T13:40:19;2.03;;;0.90;;
31482;SDS011;18103;52.246;8.052;2023-06-05T13:42:44;1.50;;;1.07;;
31482;SDS011;18103;52.246;8.052;2023-06-05T13:45:12;2.20;;;1.33;;
31482;SDS011;18103;52.246;8.052;2023-06-05T13:47:40;2.93;;;1.17;;
31482;SDS011;18103;52.246;8.052;2023-06-05T13:50:08;4.33;;;1.30;;
31482;SDS011;18103;52.246;8.052;2023-06-05T13:52:36;3.60;;;2.13;;
31482;SDS011;18103;52.246;8.052;2023-06-05T13:55:01;1.60;;;1.37;;
31482;SDS011;18103;52.246;8.052;2023-06-05T13:57:27;2.27;;;1.30;;
31482;SDS011;18103;52.246;8.052;2023-06-05T13:59:53;5.30;;;1.23;;
31482;SDS011;18103;52.246;8.052;2023-06-05T14:02:20;5.90;;;1.40;;
31482;SDS011;18103;52.246;8.052;2023-06-05T14:04:51;5.40;;;1.60;;
31482;SDS011;18103;52.246;8.052;2023-06-05T14:07:16;2.97;;;1.40;;
31482;SDS011;18103;52.246;8.052;2023-06-05T14:09:43;3.40;;;1.57;;
31482;SDS011;18103;52.246;8.052;2023-06-05T14:12:12;5.17;;;1.20;;
31482;SDS011;18103;52.246;8.052;2023-06-05T14:14:41;1.77;;;1.30;;
31482;SDS011;18103;52.246;8.052;2023-06-05T14:17:10;1.40;;;1.23;;
31482;SDS011;18103;52.246;8.052;2023-06-05T14:19:37;2.93;;;1.30;;
31482;SDS011;18103;52.246;8.052;2023-06-05T14:22:03;5.57;;;1.20;;
31482;SDS011;18103;52.246;8.052;2023-06-05T14:24:30;3.70;;;1.33;;
31482;SDS011;18103;52.246;8.052;2023-06-05T14:26:58;4.43;;;1.50;;
31482;SDS011;18103;52.246;8.052;2023-06-05T14:29:24;2.47;;;1.30;;
31482;SDS011;18103;52.246;8.052;2023-06-05T14:31:51;4.10;;;1.27;;
31482;SDS011;18103;52.246;8.052;2023-06-05T14:34:17;4.43;;;1.33;;
31482;SDS011;18103;52.246;8.052;2023-06-05T14:36:45;5.50;;;1.30;;
31482;SDS011;18103;52.246;8.052;2023-06-05T14:39:17;1.53;;;1.43;;
31482;SDS011;18103;52.246;8.052;2023-06-05T14:41:44;6.80;;;1.80;;
31482;SDS011;18103;52.246;8.052;2023-06-05T14:44:14;2.43;;;1.53;;
31482;SDS011;18103;52.246;8.052;2023-06-05T14:46:40;1.30;;;1.20;;
31482;SDS011;18103;52.246;8.052;2023-06-05T14:49:06;2.00;;;1.00;;
31482;SDS011;18103;52.246;8.052;2023-06-05T14:51:31;3.53;;;1.90;;
31482;SDS011;18103;52.246;8.052;2023-06-05T14:53:57;5.63;;;1.50;;
31482;SDS011;18103;52.246;8.052;2023-06-05T14:56:24;3.53;;;1.50;;
31482;SDS011;18103;52.246;8.052;2023-06-05T14:58:51;5.13;;;1.60;;
31482;SDS011;18103;52.246;8.052;2023-06-05T15:01:17;2.87;;;1.37;;
31482;SDS011;18103;52.246;8.052;2023-06-05T15:03:42;1.97;;;1.30;;
31482;SDS011;18103;52.246;8.052;2023-06-05T15:06:10;3.00;;;1.53;;
31482;SDS011;18103;52.246;8.052;2023-06-05T15:08:36;4.30;;;1.50;;
31482;SDS011;18103;52.246;8.052;2023-06-05T15:11:02;3.17;;;1.60;;
31482;SDS011;18103;52.246;8.052;2023-06-05T15:13:30;1.80;;;1.20;;
31482;SDS011;18103;52.246;8.052;2023-06-05T15:15:55;2.17;;;1.43;;
31482;SDS011;18103;52.246;8.052;2023-06-05T15:18:24;3.17;;;1.37;;
31482;SDS011;18103;52.246;8.052;2023-06-05T15:20:50;2.00;;;1.30;;
31482;SDS011;18103;52.246;8.052;2023-06-05T15:23:18;3.07;;;1.30;;
31482;SDS011;18103;52.246;8.052;2023-06-05T15:25:47;3.73;;;1.50;;
31482;SDS011;18103;52.246;8.052;2023-06-05T15:28:12;3.07;;;1.77;;
31482;SDS011;18103;52.246;8.052;2023-06-05T15:30:41;2.93;;;1.63;;
31482;SDS011;18103;52.246;8.052;2023-06-05T15:33:09;1.87;;;1.40;;
31482;SDS011;18103;52.246;8.052;2023-06-05T15:35:37;2.50;;;1.53;;
31482;SDS011;18103;52.246;8.052;2023-06-05T15:38:07;2.70;;;1.50;;
31482;SDS011;18103;52.246;8.052;2023-06-05T15:40:35;2.57;;;1.57;;
31482;SDS011;18103;52.246;8.052;2023-06-05T15:43:05;3.60;;;1.80;;
31482;SDS011;18103;52.246;8.052;2023-06-05T15:45:33;5.20;;;1.47;;
31482;SDS011;18103;52.246;8.052;2023-06-05T15:47:59;4.57;;;1.50;;